Time;durP1;ratioP1;P1;durP2;ratioP2;P2;SDS_P1;SDS_P2;PMS_P1;PMS_P2;Temp;Humidity;BMP_temperature;BMP_pressure;BME280_temperature;BME280_humidity;BME280_pressure;Samples;Min_cycle;Max_cycle;Signal;HPM_P1;HPM_P2
2021/06/23 04:27:30;;;;;;;13.88;8.30;;;;;;;18.05;79.78;100170.47;5189849;27;20594;-69
2021/06/23 04:29:56;;;;;;;12.00;8.23;;;;;;;18.22;79.94;100186.09;5195214;27;29336;-69
2021/06/23 04:32:21;;;;;;;16.75;9.40;;;;;;;18.40;79.38;100188.84;5194769;27;20041;-70
2021/06/23 04:34:46;;;;;;;14.57;8.15;;;;;;;18.52;79.12;100186.25;5194878;27;33975;-68
2021/06/23 04:37:12;;;;;;;16.10;8.55;;;;;;;18.64;78.81;100193.59;5193341;27;34629;-68
2021/06/23 04:39:37;;;;;;;12.40;7.80;;;;;;;18.70;78.36;100192.69;5175062;27;27882;-69
2021/06/23 04:42:03;;;;;;;14.52;9.32;;;;;;;18.76;78.07;100194.50;5191975;27;36897;-62
2021/06/23 04:44:28;;;;;;;10.13;8.30;;;;;;;18.78;77.66;100201.31;5190660;27;20026;-61
2021/06/23 04:46:54;;;;;;;14.85;7.88;;;;;;;18.78;77.32;100212.13;5192799;27;20023;-70
2021/06/23 04:49:19;;;;;;;11.10;7.55;;;;;;;18.76;76.92;100214.19;5192401;27;33833;-67
2021/06/23 04:51:44;;;;;;;16.02;8.70;;;;;;;18.76;76.85;100222.28;5192634;27;37740;-65
2021/06/23 04:54:10;;;;;;;15.93;8.20;;;;;;;18.75;76.83;100233.31;5191439;27;31478;-66
2021/06/23 04:56:35;;;;;;;13.90;7.85;;;;;;;18.74;76.57;100245.16;5193335;27;20019;-61
2021/06/23 04:59:01;;;;;;;14.05;7.95;;;;;;;18.72;76.56;100249.97;5194740;27;23295;-62
2021/06/23 05:01:26;;;;;;;12.48;8.43;;;;;;;18.69;76.41;100245.84;5194593;27;28048;-65
2021/06/23 05:03:52;;;;;;;11.88;7.88;;;;;;;18.70;76.33;100249.34;5193430;27;39952;-66
2021/06/23 05:06:17;;;;;;;11.25;7.68;;;;;;;18.70;76.12;100243.94;5194771;27;20031;-63
2021/06/23 05:08:43;;;;;;;13.15;8.15;;;;;;;18.72;76.33;100236.47;5194717;27;20030;-61
2021/06/23 05:11:08;;;;;;;15.00;8.65;;;;;;;18.75;76.19;100244.94;5193296;27;20437;-61
2021/06/23 05:13:35;;;;;;;13.00;7.57;;;;;;;18.76;75.83;100243.88;5194713;27;20058;-61
2021/06/23 05:16:01;;;;;;;18.88;8.90;;;;;;;18.75;75.49;100254.91;5194307;27;20622;-62
2021/06/23 05:18:27;;;;;;;17.13;10.80;;;;;;;18.69;75.26;100256.63;5193147;27;20042;-60
2021/06/23 05:20:52;;;;;;;17.25;10.05;;;;;;;18.65;75.36;100254.59;5193207;27;20888;-60
2021/06/23 05:23:18;;;;;;;13.05;9.15;;;;;;;18.64;75.39;100267.25;5193817;27;32969;-60
2021/06/23 05:25:43;;;;;;;12.85;9.00;;;;;;;18.63;75.08;100272.88;5194202;27;20140;-61
2021/06/23 05:28:08;;;;;;;16.63;9.65;;;;;;;18.63;75.24;100268.31;5193882;27;31806;-61
2021/06/23 05:30:34;;;;;;;17.10;10.38;;;;;;;18.68;75.40;100267.63;5193360;27;36229;-60
2021/06/23 05:32:59;;;;;;;11.82;9.13;;;;;;;18.68;74.89;100275.75;5194567;27;20027;-60
2021/06/23 05:35:24;;;;;;;16.02;8.93;;;;;;;18.69;75.20;100272.00;5194199;27;23042;-62
2021/06/23 05:37:50;;;;;;;16.17;10.15;;;;;;;18.68;74.97;100279.25;5186043;27;20045;-62
2021/06/23 05:40:15;;;;;;;14.13;10.63;;;;;;;18.68;74.85;100287.34;5178620;27;40955;-61
2021/06/23 05:42:41;;;;;;;12.98;8.63;;;;;;;18.69;74.74;100290.88;5178392;27;20033;-60
2021/06/23 05:45:06;;;;;;;11.73;8.65;;;;;;;18.64;74.34;100293.41;5179279;27;29831;-62
2021/06/23 05:47:32;;;;;;;12.32;8.05;;;;;;;18.61;74.47;100294.69;5179914;27;20031;-61
2021/06/23 05:49:57;;;;;;;9.52;7.82;;;;;;;18.59;74.37;100300.28;5179256;27;38320;-63
2021/06/23 05:52:22;;;;;;;13.57;8.82;;;;;;;18.60;74.84;100301.97;5179343;27;34540;-66
2021/06/23 05:54:48;;;;;;;12.65;8.65;;;;;;;18.68;74.74;100310.81;5179104;27;34873;-62
2021/06/23 05:57:13;;;;;;;15.07;9.52;;;;;;;18.69;74.55;100307.06;5178182;27;28603;-61
2021/06/23 05:59:39;;;;;;;14.02;8.43;;;;;;;18.75;74.83;100300.78;5179490;27;20466;-63
2021/06/23 06:02:04;;;;;;;15.40;8.40;;;;;;;18.85;74.95;100300.25;5179483;27;21817;-62
2021/06/23 06:04:30;;;;;;;13.77;8.32;;;;;;;18.91;74.57;100300.25;5179984;27;20026;-62
2021/06/23 06:06:55;;;;;;;16.50;8.60;;;;;;;19.00;74.62;100308.03;5178773;27;32238;-60
2021/06/23 06:09:20;;;;;;;12.05;8.38;;;;;;;19.06;74.42;100301.78;5179441;27;20035;-61
2021/06/23 06:11:46;;;;;;;14.50;8.68;;;;;;;19.13;74.58;100299.81;5179588;27;20413;-61
2021/06/23 06:14:11;;;;;;;16.23;8.50;;;;;;;19.21;74.15;100307.63;5179157;27;20015;-61
2021/06/23 06:16:37;;;;;;;16.80;7.95;;;;;;;19.23;73.93;100324.44;5178657;27;24531;-63
2021/06/23 06:19:02;;;;;;;13.82;9.07;;;;;;;19.23;73.65;100332.53;5179806;27;20023;-60
2021/06/23 06:21:27;;;;;;;13.98;8.38;;;;;;;19.24;73.50;100331.47;5179220;27;21560;-62
2021/06/23 06:23:53;;;;;;;13.90;8.75;;;;;;;19.20;73.06;100343.75;5178936;27;33945;-61
2021/06/23 06:26:18;;;;;;;16.98;8.93;;;;;;;19.16;73.07;100337.16;5179074;27;20061;-62
2021/06/23 06:28:44;;;;;;;14.98;8.27;;;;;;;19.21;73.39;100333.81;5178096;27;20023;-66
2021/06/23 06:31:09;;;;;;;14.35;8.32;;;;;;;19.30;73.60;100326.22;5175574;27;20031;-63
2021/06/23 06:33:35;;;;;;;10.82;7.93;;;;;;;19.34;73.27;100324.72;5176420;27;20072;-61
2021/06/23 06:36:00;;;;;;;13.65;7.70;;;;;;;19.39;73.28;100332.97;5177213;27;30671;-65
2021/06/23 06:38:26;;;;;;;9.40;7.63;;;;;;;19.45;73.10;100332.06;5177982;27;20030;-65
2021/06/23 06:40:51;;;;;;;16.48;7.70;;;;;;;19.55;73.11;100331.56;5177838;27;20037;-66
2021/06/23 06:43:16;;;;;;;10.60;7.30;;;;;;;19.66;73.04;100332.69;5176771;27;37146;-60
2021/06/23 06:45:42;;;;;;;12.48;7.10;;;;;;;19.73;72.80;100336.13;5178357;27;20037;-60
2021/06/23 06:48:08;;;;;;;16.05;7.60;;;;;;;19.75;72.43;100352.91;5179215;27;20037;-63
2021/06/23 06:50:33;;;;;;;12.15;7.15;;;;;;;19.76;72.04;100357.28;5177312;27;20117;-67
2021/06/23 06:52:58;;;;;;;12.57;7.53;;;;;;;19.70;71.65;100366.31;5178272;27;20030;-68
2021/06/23 06:55:24;;;;;;;14.23;8.05;;;;;;;19.67;71.59;100369.44;5177768;27;35439;-65
2021/06/23 06:57:50;;;;;;;14.63;8.55;;;;;;;19.60;71.29;100362.25;5178809;27;20029;-66
2021/06/23 07:00:16;;;;;;;10.55;7.63;;;;;;;19.53;71.12;100372.31;5178193;27;20031;-66
2021/06/23 07:02:42;;;;;;;11.48;7.43;;;;;;;19.53;71.49;100369.63;5178586;27;20057;-63
2021/06/23 07:05:07;;;;;;;13.20;7.93;;;;;;;19.59;71.88;100366.00;5179030;27;20403;-65
2021/06/23 07:07:33;;;;;;;12.25;7.82;;;;;;;19.77;72.64;100359.75;5177913;27;20389;-67
2021/06/23 07:09:58;;;;;;;11.90;6.88;;;;;;;20.07;72.95;100353.56;5177317;27;42201;-68
2021/06/23 07:12:23;;;;;;;11.02;8.13;;;;;;;20.42;73.41;100341.22;5177128;27;37899;-65
2021/06/23 07:14:49;;;;;;;13.13;7.57;;;;;;;20.72;72.70;100332.22;5177623;27;28134;-65
2021/06/23 07:17:14;;;;;;;13.60;8.02;;;;;;;20.88;71.71;100331.53;5177779;27;20023;-65
2021/06/23 07:19:40;;;;;;;13.27;8.25;;;;;;;21.15;72.39;100325.66;5177291;27;41506;-67
2021/06/23 07:22:06;;;;;;;10.95;7.45;;;;;;;21.47;71.89;100327.94;5177743;27;26338;-67
2021/06/23 07:24:31;;;;;;;12.30;7.97;;;;;;;21.60;70.48;100327.69;5178075;27;20023;-66
2021/06/23 07:26:59;;;;;;;9.70;6.88;;;;;;;21.61;69.77;100332.06;5177521;27;20042;-66
2021/06/23 07:29:26;;;;;;;13.45;7.13;;;;;;;21.64;69.70;100334.28;5177577;27;20035;-65
2021/06/23 07:32:03;;;;;;;11.88;6.82;;;;;;;21.86;70.32;100336.34;5176901;27;20026;-78
2021/06/23 07:36:57;;;;;;;12.18;7.43;;;;;;;22.05;67.73;100344.28;5177023;27;20041;-69
2021/06/23 07:39:22;;;;;;;13.85;7.45;;;;;;;21.94;67.52;100344.09;5176683;27;20796;-74
2021/06/23 07:41:50;;;;;;;11.98;7.05;;;;;;;21.91;67.26;100344.59;5178162;27;20077;-75
2021/06/23 07:44:19;;;;;;;18.30;8.07;;;;;;;21.85;67.15;100342.81;5177910;27;20074;-77
2021/06/23 07:46:56;;;;;;;14.00;8.50;;;;;;;21.77;66.43;100340.50;5178159;27;20091;-71
2021/06/23 07:49:23;;;;;;;13.07;7.85;;;;;;;21.66;66.65;100353.03;5178035;27;20035;-66
2021/06/23 07:52:12;;;;;;;11.38;7.55;;;;;;;21.59;66.37;100345.03;5176802;27;20160;-67
2021/06/23 08:10:30;;;;;;;13.93;8.80;;;;;;;21.41;66.88;100359.53;5175878;27;20034;-66
2021/06/23 08:12:56;;;;;;;14.73;8.65;;;;;;;21.57;66.08;100362.59;5176473;27;20029;-64
2021/06/23 08:15:22;;;;;;;12.85;8.23;;;;;;;21.67;66.28;100367.41;5177849;27;20874;-64
2021/06/23 08:17:48;;;;;;;11.77;8.95;;;;;;;21.74;65.84;100368.91;5177664;27;20723;-66
2021/06/23 08:20:13;;;;;;;16.42;7.57;;;;;;;21.77;65.60;100371.16;5177142;27;20027;-67
2021/06/23 08:22:39;;;;;;;14.63;7.93;;;;;;;21.89;66.54;100368.41;5177766;27;20394;-76
2021/06/23 08:25:05;;;;;;;14.55;8.05;;;;;;;22.25;66.86;100377.22;5158461;27;20026;-61
2021/06/23 08:27:30;;;;;;;13.38;8.30;;;;;;;22.60;66.28;100384.38;5177685;27;20562;-61
2021/06/23 08:29:56;;;;;;;11.57;7.90;;;;;;;22.91;66.33;100378.59;5176353;27;41728;-63
2021/06/23 08:32:21;;;;;;;10.98;8.15;;;;;;;23.31;66.31;100378.44;5177433;27;20039;-66
2021/06/23 08:34:46;;;;;;;12.48;7.18;;;;;;;23.81;66.77;100375.78;5176647;27;41223;-66
2021/06/23 08:37:12;;;;;;;11.57;7.22;;;;;;;24.42;66.57;100369.41;5177509;27;20030;-63
2021/06/23 08:39:37;;;;;;;13.23;7.32;;;;;;;24.90;65.40;100370.34;5176507;27;36657;-63
2021/06/23 08:42:03;;;;;;;10.82;6.72;;;;;;;25.30;64.62;100360.81;5176583;27;29776;-62
2021/06/23 08:44:28;;;;;;;8.90;6.40;;;;;;;25.45;62.96;100357.38;5175306;27;20084;-62
2021/06/23 08:46:54;;;;;;;10.77;7.07;;;;;;;25.61;62.82;100363.69;5177131;27;20018;-62
2021/06/23 08:49:19;;;;;;;11.82;6.82;;;;;;;25.75;61.77;100368.66;5157918;27;22915;-61
2021/06/23 08:51:45;;;;;;;11.75;6.35;;;;;;;25.69;60.18;100367.81;5177075;27;20382;-63
2021/06/23 08:54:11;;;;;;;11.18;6.55;;;;;;;25.73;60.69;100373.56;5177577;27;20471;-64
2021/06/23 08:56:37;;;;;;;11.23;6.13;;;;;;;25.77;60.14;100380.13;5177020;27;20023;-63
2021/06/23 08:59:03;;;;;;;10.05;6.63;;;;;;;25.65;58.82;100374.91;5176389;27;20435;-69
2021/06/23 09:01:29;;;;;;;11.48;6.60;;;;;;;25.39;57.83;100387.59;5177121;27;20023;-63
2021/06/23 09:04:05;;;;;;;12.27;6.35;;;;;;;25.12;57.46;100392.06;5177170;27;20023;-67
2021/06/23 09:06:53;;;;;;;12.98;6.95;;;;;;;24.84;57.66;100399.47;5176808;27;20198;-70
2021/06/23 09:09:24;;;;;;;10.57;5.70;;;;;;;24.57;56.94;100399.47;5175438;27;20034;-64
2021/06/23 09:11:52;;;;;;;10.57;5.78;;;;;;;24.32;57.09;100397.34;5176769;27;20063;-65
2021/06/23 09:14:17;;;;;;;8.13;5.65;;;;;;;24.12;57.08;100390.59;5180236;27;20056;-64
2021/06/23 09:17:05;;;;;;;10.85;6.32;;;;;;;23.93;56.82;100398.28;5180139;27;20031;-61
2021/06/23 09:19:41;;;;;;;14.77;6.28;;;;;;;23.76;56.98;100392.88;5180168;27;20123;-62
2021/06/23 09:22:29;;;;;;;15.57;6.55;;;;;;;23.69;57.48;100392.25;5178579;27;20027;-62
2021/06/23 09:24:54;;;;;;;11.13;6.40;;;;;;;23.68;57.62;100393.31;5175775;27;20432;-62
2021/06/23 09:27:29;;;;;;;12.35;6.55;;;;;;;23.69;57.59;100389.53;5160347;27;34031;-64
2021/06/23 09:30:24;;;;;;;9.73;6.15;;;;;;;23.71;57.48;100381.13;5160801;27;20023;-64
2021/06/23 09:33:16;;;;;;;11.05;5.90;;;;;;;23.66;57.52;100385.41;5180203;27;20023;-61
2021/06/23 09:36:00;;;;;;;11.35;6.43;;;;;;;23.63;57.52;100391.38;5180107;27;20041;-62
2021/06/23 09:38:32;;;;;;;9.30;6.45;;;;;;;23.55;57.00;100383.66;5180203;27;20831;-60
2021/06/23 09:40:59;;;;;;;12.40;6.18;;;;;;;23.49;57.35;100381.94;5179867;27;20035;-64
2021/06/23 09:43:34;;;;;;;10.55;6.18;;;;;;;23.37;56.99;100386.66;5179895;27;20023;-61
2021/06/23 09:45:59;;;;;;;8.77;5.13;;;;;;;23.21;56.36;100402.75;5180026;27;20027;-61
2021/06/23 09:48:25;;;;;;;8.80;5.38;;;;;;;23.07;56.71;100390.53;5179987;27;20177;-61
2021/06/23 09:50:50;;;;;;;11.20;5.45;;;;;;;22.99;57.23;100402.63;5160250;27;22292;-60
2021/06/23 09:53:17;;;;;;;12.48;6.10;;;;;;;22.90;57.08;100396.81;5179407;27;34801;-61
2021/06/23 09:55:50;;;;;;;10.77;5.07;;;;;;;22.84;57.10;100411.41;5161108;27;20061;-61
2021/06/23 09:58:20;;;;;;;9.63;5.80;;;;;;;22.78;57.56;100420.50;5180268;27;20121;-64
2021/06/23 10:01:11;;;;;;;12.10;6.15;;;;;;;22.76;57.58;100417.22;5179743;27;20023;-61
2021/06/23 10:03:56;;;;;;;11.30;6.60;;;;;;;22.71;57.52;100417.13;5178035;27;20101;-63
2021/06/23 10:06:26;;;;;;;8.70;5.35;;;;;;;22.75;58.07;100421.00;5179929;27;20034;-61
2021/06/23 11:52:47;;;;;;;7.72;5.88;;;;;;;25.88;47.89;100398.19;4939940;27;107566;-46
2021/06/23 11:55:23;;;;;;;11.05;5.90;;;;;;;25.66;51.04;100393.72;4967673;28;106040;-45
2021/06/23 13:21:09;;;;;;;9.20;4.80;;;;;;;26.73;48.29;100398.94;5006993;28;106189;-59
2021/06/23 13:23:34;;;;;;;9.18;5.47;;;;;;;26.82;48.84;100397.31;5005634;28;106080;-58
2021/06/23 13:26:00;;;;;;;9.40;5.05;;;;;;;27.24;48.56;100389.84;5004219;28;111767;-52
2021/06/23 13:28:26;;;;;;;10.98;5.55;;;;;;;27.29;48.35;100390.66;5004883;28;107798;-63
2021/06/23 13:30:51;;;;;;;10.10;4.95;;;;;;;27.35;47.74;100389.56;5004540;28;106083;-63
2021/06/23 13:50:30;;;;;;;10.15;5.50;;;;;;;26.34;48.18;100390.13;5060062;27;106036;-67
2021/06/23 13:52:55;;;;;;;13.60;6.10;;;;;;;26.20;47.58;100386.28;5026000;28;105949;-71
2021/06/23 14:01:35;;;;;;;12.90;5.22;;;;;;;26.25;49.06;100397.22;4987396;28;105994;-65
2021/06/23 14:04:00;;;;;;;11.95;7.40;;;;;;;26.23;48.79;100395.84;4985423;28;106012;-72
2021/06/23 14:06:26;;;;;;;19.30;15.50;;;;;;;26.14;48.93;100388.19;4985371;28;108033;-71
2021/06/23 14:08:51;;;;;;;10.35;5.93;;;;;;;26.14;49.23;100387.38;4983262;28;106655;-72
2021/06/23 14:11:17;;;;;;;12.25;5.20;;;;;;;26.00;48.80;100384.31;4983380;28;107070;-74
2021/06/23 14:13:43;;;;;;;12.23;5.55;;;;;;;25.98;49.45;100376.34;4961666;27;106247;-79
2021/06/23 14:16:08;;;;;;;12.15;5.78;;;;;;;26.07;49.46;100386.81;4883523;28;107037;-83
2021/06/23 14:18:34;;;;;;;13.57;5.72;;;;;;;26.03;49.31;100370.16;4943162;28;106114;-82
2021/06/23 14:20:59;;;;;;;8.40;5.47;;;;;;;26.08;49.55;100380.25;4944336;28;106290;-86
2021/06/23 14:23:25;;;;;;;15.65;5.53;;;;;;;26.26;49.41;100384.38;4945018;28;106094;-85
2021/06/23 14:25:51;;;;;;;9.25;4.95;;;;;;;26.43;49.28;100386.88;4943237;28;113114;-85
2021/06/23 14:28:17;;;;;;;11.82;5.40;;;;;;;26.54;48.79;100385.78;4943527;28;106402;-85
2021/06/23 14:30:43;;;;;;;12.45;5.72;;;;;;;26.53;48.38;100378.66;4943484;28;106495;-84
2021/06/23 14:33:08;;;;;;;11.65;5.32;;;;;;;26.48;48.22;100386.88;4944407;28;106076;-82
2021/06/23 14:35:34;;;;;;;9.82;5.35;;;;;;;26.49;48.61;100383.88;4944439;28;106339;-80
2021/06/23 14:37:59;;;;;;;49.13;37.95;;;;;;;26.51;48.76;100389.88;4944105;28;106161;-84
2021/06/23 14:40:25;;;;;;;10.15;5.68;;;;;;;26.50;48.61;100390.13;4944192;28;119928;-86
2021/06/23 14:42:50;;;;;;;11.20;5.70;;;;;;;26.60;48.54;100389.31;4946129;28;105953;-85
2021/06/23 14:45:16;;;;;;;10.88;5.43;;;;;;;26.52;48.62;100390.69;4944196;28;106266;-83
2021/06/23 14:47:41;;;;;;;13.52;5.32;;;;;;;26.37;48.29;100396.97;4944172;28;106037;-85
2021/06/23 14:50:07;;;;;;;8.85;5.43;;;;;;;26.24;48.46;100398.28;4945336;28;106034;-84
2021/06/23 14:52:33;;;;;;;7.63;4.53;;;;;;;26.20;48.76;100404.56;4945308;28;106003;-84
2021/06/23 14:54:59;;;;;;;6.70;4.57;;;;;;;26.23;48.69;100401.31;4945814;28;106235;-77
2021/06/23 14:57:25;;;;;;;11.95;5.35;;;;;;;26.17;48.58;100403.19;4944661;28;106419;-83
2021/06/23 14:59:52;;;;;;;11.32;5.78;;;;;;;26.17;48.91;100408.66;4944830;28;106011;-83
2021/06/23 15:02:17;;;;;;;9.18;4.85;;;;;;;26.17;48.57;100405.94;4945911;28;106350;-85
2021/06/23 15:04:42;;;;;;;7.45;4.45;;;;;;;26.20;48.90;100404.56;4944862;28;110115;-83
2021/06/23 15:07:09;;;;;;;12.05;5.22;;;;;;;26.28;48.66;100393.13;4944525;28;124872;-83
2021/06/23 15:09:34;;;;;;;11.10;5.68;;;;;;;26.30;48.66;100394.50;4944618;28;106253;-84
2021/06/23 15:11:59;;;;;;;7.60;4.72;;;;;;;26.28;48.47;100396.66;4937513;28;106518;-73
2021/06/23 15:14:25;;;;;;;11.18;4.53;;;;;;;26.28;48.59;100404.84;4932190;28;106177;-70
2021/06/23 15:16:51;;;;;;;7.43;4.95;;;;;;;26.23;48.33;100407.59;4931611;28;106646;-70
2021/06/23 15:19:16;;;;;;;12.05;5.30;;;;;;;26.08;48.69;100404.81;4931307;28;117469;-72
2021/06/23 15:21:42;;;;;;;12.80;5.30;;;;;;;25.98;48.79;100406.38;4932845;28;105955;-72
2021/06/23 15:24:07;;;;;;;10.43;5.30;;;;;;;25.83;48.92;100411.78;4931911;28;105947;-71
2021/06/23 15:26:33;;;;;;;12.63;4.88;;;;;;;25.71;49.24;100405.75;4931545;28;105947;-67
2021/06/23 15:28:59;;;;;;;11.35;4.95;;;;;;;25.63;49.49;100412.50;4930900;28;121016;-68
2021/06/23 15:31:24;;;;;;;8.63;4.50;;;;;;;25.57;49.67;100411.69;4931380;28;106108;-75
2021/06/23 15:33:50;;;;;;;7.88;4.03;;;;;;;25.50;49.82;100411.09;4931442;28;106553;-72
2021/06/23 15:36:15;;;;;;;10.80;4.22;;;;;;;25.51;49.72;100424.47;4930769;28;107166;-71
2021/06/23 15:38:42;;;;;;;8.82;4.60;;;;;;;25.46;49.75;100415.44;4931039;28;106013;-69
2021/06/23 15:41:09;;;;;;;8.73;4.53;;;;;;;25.48;50.03;100418.75;4932087;28;107127;-72
2021/06/23 15:43:34;;;;;;;11.60;4.15;;;;;;;25.53;50.16;100410.56;4930907;28;106272;-72
2021/06/23 15:46:00;;;;;;;11.13;4.20;;;;;;;25.55;49.75;100419.31;4930649;28;106134;-74
2021/06/23 15:48:26;;;;;;;12.73;5.35;;;;;;;25.55;49.65;100413.88;4889235;28;117312;-73
2021/06/23 15:50:52;;;;;;;11.10;4.15;;;;;;;25.50;50.25;100424.75;4925417;28;106114;-74
2021/06/23 15:53:17;;;;;;;8.07;4.50;;;;;;;25.51;50.16;100415.47;4931019;28;106175;-74
2021/06/23 15:55:42;;;;;;;11.45;4.50;;;;;;;25.46;49.60;100404.53;4927128;28;112337;-76
2021/06/23 15:58:19;;;;;;;8.38;4.18;;;;;;;25.42;49.90;100406.16;4931202;28;106336;-75
2021/06/23 16:00:44;;;;;;;8.18;4.13;;;;;;;25.29;50.04;100412.88;4931443;28;106177;-74
2021/06/23 16:03:09;;;;;;;11.45;4.20;;;;;;;25.15;50.26;100423.38;4931850;28;105940;-72
2021/06/23 16:05:35;;;;;;;13.73;3.80;;;;;;;25.14;50.71;100413.59;4930703;28;105904;-74
2021/06/23 16:08:00;;;;;;;9.73;4.22;;;;;;;25.25;50.72;100409.84;4913293;28;108397;-73
2021/06/23 16:10:26;;;;;;;6.35;4.20;;;;;;;25.36;50.66;100409.91;4929935;28;106044;-74
2021/06/23 16:12:51;;;;;;;7.15;4.22;;;;;;;25.38;50.73;100419.47;4928916;28;106617;-74
2021/06/23 16:15:16;;;;;;;7.30;3.45;;;;;;;25.41;50.64;100424.44;4929353;28;106206;-72
2021/06/23 16:17:42;;;;;;;5.82;3.97;;;;;;;25.44;50.54;100423.88;4929574;28;106071;-72
2021/06/23 16:20:08;;;;;;;7.75;3.72;;;;;;;25.37;50.46;100427.94;4930291;28;106082;-70
2021/06/23 16:22:36;;;;;;;11.68;4.65;;;;;;;25.27;50.59;100429.47;4927592;28;106241;-74
2021/06/23 16:25:02;;;;;;;8.55;4.57;;;;;;;25.23;50.87;100422.91;4910890;28;106074;-70
2021/06/23 16:27:27;;;;;;;8.23;3.70;;;;;;;25.11;51.07;100420.38;4925548;28;106307;-71
2021/06/23 16:29:52;;;;;;;6.63;3.75;;;;;;;25.00;50.87;100419.47;4928394;28;106554;-72
2021/06/23 16:32:18;;;;;;;6.38;4.47;;;;;;;24.93;51.22;100416.16;4930153;28;106294;-72
2021/06/23 16:34:43;;;;;;;9.18;4.00;;;;;;;24.86;51.34;100412.81;4930681;28;107032;-76
2021/06/23 16:37:09;;;;;;;6.45;4.28;;;;;;;24.83;51.34;100414.16;4930430;28;106881;-76
2021/06/23 16:39:34;;;;;;;10.40;4.10;;;;;;;24.77;51.59;100411.69;4930954;28;105894;-72
2021/06/23 16:41:59;;;;;;;8.80;4.30;;;;;;;24.74;51.63;100417.63;4929847;28;108838;-72
2021/06/23 16:44:25;;;;;;;7.18;4.70;;;;;;;24.71;51.76;100420.88;4928626;28;118320;-73
2021/06/23 16:46:50;;;;;;;10.40;4.00;;;;;;;24.65;52.10;100414.56;4930281;28;106430;-78
2021/06/23 16:49:16;;;;;;;8.75;4.60;;;;;;;24.65;51.99;100418.09;4910702;28;106285;-80
2021/06/23 16:51:41;;;;;;;13.00;4.43;;;;;;;24.58;51.80;100422.09;4929800;28;106285;-75
2021/06/23 16:54:07;;;;;;;11.95;4.93;;;;;;;24.53;52.03;100424.78;4928473;28;105988;-73
2021/06/23 16:56:32;;;;;;;9.20;4.70;;;;;;;24.51;52.16;100435.94;4930019;28;106275;-73
2021/06/23 16:58:57;;;;;;;10.32;4.50;;;;;;;24.42;52.16;100434.75;4930425;28;106184;-79
2021/06/23 17:01:25;;;;;;;7.50;4.53;;;;;;;24.36;52.61;100436.59;4929841;28;107499;-76
2021/06/23 17:03:50;;;;;;;9.30;5.70;;;;;;;24.34;52.50;100446.91;4929423;28;105888;-72
2021/06/23 17:06:16;;;;;;;9.18;4.78;;;;;;;24.36;52.90;100435.75;4929530;28;105881;-76
2021/06/23 17:08:42;;;;;;;7.70;4.07;;;;;;;24.36;52.62;100435.75;4930658;28;106549;-83
2021/06/23 17:11:08;;;;;;;10.90;4.38;;;;;;;24.34;52.64;100441.44;4930188;28;106197;-78
2021/06/23 17:13:34;;;;;;;11.00;4.43;;;;;;;24.26;52.58;100431.88;4930293;28;106670;-87
2021/06/23 17:15:59;;;;;;;10.05;4.00;;;;;;;24.21;52.76;100429.06;4926175;28;106266;-84
2021/06/23 17:18:25;;;;;;;9.02;4.35;;;;;;;24.18;52.93;100429.59;4930115;28;106202;-78
2021/06/23 17:20:50;;;;;;;7.97;4.47;;;;;;;24.15;52.84;100425.47;4927654;28;107728;-77
2021/06/23 17:23:15;;;;;;;8.18;4.00;;;;;;;24.13;53.22;100429.53;4928483;28;106806;-79
2021/06/23 17:25:41;;;;;;;17.10;10.10;;;;;;;24.08;53.19;100430.28;4880289;28;114310;-78
2021/06/23 17:28:09;;;;;;;10.82;4.95;;;;;;;24.03;52.93;100434.84;4928953;28;106026;-75
2021/06/23 17:30:34;;;;;;;10.80;6.32;;;;;;;23.92;53.06;100429.28;4928490;28;107369;-78
2021/06/23 17:33:00;;;;;;;8.40;4.90;;;;;;;23.82;53.43;100426.41;4927713;28;120487;-81
2021/06/23 17:35:25;;;;;;;8.90;4.57;;;;;;;23.70;53.59;100426.50;4927515;28;121610;-76
2021/06/23 17:37:50;;;;;;;9.77;4.68;;;;;;;23.64;54.06;100431.06;4929014;28;106124;-80
2021/06/23 17:40:16;;;;;;;7.15;4.65;;;;;;;23.53;53.89;100429.28;4928656;28;106531;-83
2021/06/23 17:42:42;;;;;;;6.88;4.40;;;;;;;23.54;54.00;100438.25;4928052;28;106216;-73
2021/06/23 17:45:08;;;;;;;11.27;4.32;;;;;;;23.42;54.35;100417.44;4928155;28;106397;-73
2021/06/23 17:47:33;;;;;;;10.23;4.55;;;;;;;23.44;54.43;100426.19;4928981;28;106420;-70
2021/06/23 17:49:59;;;;;;;9.13;4.30;;;;;;;23.38;54.44;100429.91;4928204;28;106348;-79
2021/06/23 17:52:25;;;;;;;11.43;4.38;;;;;;;23.35;54.57;100426.84;4927111;28;106162;-71
2021/06/23 17:54:50;;;;;;;12.10;5.22;;;;;;;23.33;54.54;100424.38;4927075;28;106550;-78
2021/06/23 17:57:16;;;;;;;9.60;4.70;;;;;;;23.25;55.00;100417.50;4927117;28;106547;-72
2021/06/23 17:59:41;;;;;;;10.40;4.68;;;;;;;23.22;54.77;100409.81;4924423;28;106219;-71
2021/06/23 18:02:07;;;;;;;7.30;4.90;;;;;;;23.13;55.01;100403.19;4926750;28;107496;-73
2021/06/23 18:04:32;;;;;;;10.07;4.53;;;;;;;23.08;55.34;100405.78;4924813;28;106029;-73
2021/06/23 18:06:57;;;;;;;9.02;5.03;;;;;;;23.02;55.51;100415.75;4928076;28;106056;-74
2021/06/23 18:09:23;;;;;;;7.70;5.47;;;;;;;22.95;55.37;100423.22;4927389;28;106222;-71
2021/06/23 18:11:49;;;;;;;12.52;5.72;;;;;;;22.91;55.80;100424.78;4926557;28;108030;-72
2021/06/23 18:14:15;;;;;;;10.80;5.60;;;;;;;22.84;56.01;100430.41;4926604;28;107430;-74
2021/06/23 18:16:40;;;;;;;10.60;5.10;;;;;;;22.79;56.27;100433.03;4927645;28;106070;-75
2021/06/23 18:19:06;;;;;;;9.75;4.65;;;;;;;22.72;56.17;100432.34;4926345;28;106672;-84
2021/06/23 18:21:37;;;;;;;9.00;5.53;;;;;;;22.64;56.37;100428.97;4925418;28;116156;-81
2021/06/23 18:24:03;;;;;;;8.77;4.93;;;;;;;22.57;56.46;100433.75;4925837;28;106505;-74
2021/06/23 18:26:29;;;;;;;10.77;5.20;;;;;;;22.53;56.71;100432.56;4927417;28;106458;-75
2021/06/23 18:28:54;;;;;;;13.75;5.00;;;;;;;22.47;56.84;100433.53;4926744;28;106293;-72
2021/06/23 18:31:20;;;;;;;9.95;5.50;;;;;;;22.39;57.07;100431.22;4927365;28;107000;-71
2021/06/23 18:33:45;;;;;;;8.02;4.68;;;;;;;22.30;57.24;100423.44;4926823;28;112678;-76
2021/06/23 18:36:10;;;;;;;7.60;4.20;;;;;;;22.23;57.52;100422.75;4927503;28;106126;-72
2021/06/23 18:38:36;;;;;;;11.63;5.32;;;;;;;22.13;57.55;100412.53;4927195;28;106150;-74
2021/06/23 18:41:01;;;;;;;9.70;4.78;;;;;;;22.03;57.89;100406.91;4926804;28;119409;-69
2021/06/23 18:43:27;;;;;;;8.25;4.93;;;;;;;21.94;58.05;100411.09;4927324;28;114538;-68
2021/06/23 18:45:52;;;;;;;10.80;5.35;;;;;;;21.85;58.21;100405.19;4927586;28;106065;-72
2021/06/23 18:48:18;;;;;;;9.57;5.07;;;;;;;21.73;58.61;100388.13;4926910;28;106433;-69
2021/06/23 18:50:43;;;;;;;9.13;5.10;;;;;;;21.59;58.96;100388.41;4930954;28;121521;-69
2021/06/23 18:53:09;;;;;;;8.52;4.38;;;;;;;21.48;59.32;100389.22;4930269;28;108009;-70
2021/06/23 18:55:34;;;;;;;8.35;5.60;;;;;;;21.36;59.63;100385.69;4932491;28;105907;-72
2021/06/23 18:58:00;;;;;;;10.23;5.07;;;;;;;21.29;59.90;100383.91;4946866;28;106314;-70
2021/06/23 19:00:26;;;;;;;11.32;5.43;;;;;;;21.21;60.22;100376.16;4930799;28;106521;-68
2021/06/23 19:02:51;;;;;;;10.07;5.90;;;;;;;21.12;60.55;100385.72;4931366;28;106034;-69
2021/06/23 19:05:20;;;;;;;12.10;5.50;;;;;;;21.02;60.80;100371.91;4930451;28;106151;-69
2021/06/23 19:07:47;;;;;;;8.25;5.15;;;;;;;20.96;61.23;100366.38;4931785;28;105818;-70
2021/06/23 19:10:12;;;;;;;10.68;5.55;;;;;;;20.89;61.22;100364.88;4929708;28;107774;-70
2021/06/23 19:12:38;;;;;;;11.30;5.75;;;;;;;20.78;61.51;100375.44;4930945;28;106420;-66
2021/06/23 19:15:04;;;;;;;12.82;6.20;;;;;;;20.73;61.92;100374.50;4931923;28;105853;-68
2021/06/23 19:17:29;;;;;;;12.73;6.40;;;;;;;20.65;62.22;100380.22;4953946;28;106159;-68
2021/06/23 19:19:55;;;;;;;12.38;6.55;;;;;;;20.57;62.80;100390.31;4930564;28;118361;-68
2021/06/23 19:22:20;;;;;;;13.10;5.68;;;;;;;20.51;63.01;100401.25;4930932;28;106113;-67
2021/06/23 19:24:46;;;;;;;11.63;6.15;;;;;;;20.46;63.18;100407.34;4930339;28;106016;-67
2021/06/23 19:27:11;;;;;;;10.93;6.25;;;;;;;20.40;63.43;100411.78;4930695;28;106201;-69